sensor_id;sensor_type;location;lat;lon;timestamp;P1;durP1;ratioP1;P2;durP2;ratioP2
3801;SDS011;1916;51.798;12.246;2023-07-30T00:01:32;4.50;;;4.10;;
3801;SDS011;1916;51.798;12.246;2023-07-30T00:03:34;6.03;;;4.90;;
3801;SDS011;1916;51.798;12.246;2023-07-30T00:05:37;5.40;;;4.90;;
3801;SDS011;1916;51.798;12.246;2023-07-30T00:07:39;5.67;;;5.17;;
3801;SDS011;1916;51.798;12.246;2023-07-30T00:09:41;6.53;;;5.93;;
3801;SDS011;1916;51.798;12.246;2023-07-30T00:11:43;10.63;;;5.57;;
3801;SDS011;1916;51.798;12.246;2023-07-30T00:13:46;5.40;;;4.90;;
3801;SDS011;1916;51.798;12.246;2023-07-30T00:15:48;5.67;;;5.17;;
3801;SDS011;1916;51.798;12.246;2023-07-30T00:17:50;5.67;;;5.03;;
3801;SDS011;1916;51.798;12.246;2023-07-30T00:19:53;5.93;;;5.40;;
3801;SDS011;1916;51.798;12.246;2023-07-30T00:21:55;5.50;;;5.00;;
3801;SDS011;1916;51.798;12.246;2023-07-30T00:23:57;6.10;;;5.50;;
3801;SDS011;1916;51.798;12.246;2023-07-30T00:25:59;5.90;;;5.33;;
3801;SDS011;1916;51.798;12.246;2023-07-30T00:28:02;5.67;;;5.07;;
3801;SDS011;1916;51.798;12.246;2023-07-30T00:30:04;5.90;;;5.30;;
3801;SDS011;1916;51.798;12.246;2023-07-30T00:32:07;5.33;;;4.83;;
3801;SDS011;1916;51.798;12.246;2023-07-30T00:34:09;6.20;;;5.60;;
3801;SDS011;1916;51.798;12.246;2023-07-30T00:36:12;5.63;;;5.13;;
3801;SDS011;1916;51.798;12.246;2023-07-30T00:38:14;5.60;;;5.03;;
3801;SDS011;1916;51.798;12.246;2023-07-30T00:40:17;6.23;;;5.63;;
3801;SDS011;1916;51.798;12.246;2023-07-30T00:42:20;6.30;;;5.70;;
3801;SDS011;1916;51.798;12.246;2023-07-30T00:44:22;5.63;;;5.00;;
3801;SDS011;1916;51.798;12.246;2023-07-30T00:46:25;5.80;;;5.20;;
3801;SDS011;1916;51.798;12.246;2023-07-30T00:48:27;5.47;;;4.90;;
3801;SDS011;1916;51.798;12.246;2023-07-30T00:50:29;6.00;;;5.20;;
3801;SDS011;1916;51.798;12.246;2023-07-30T00:52:32;5.60;;;5.00;;
3801;SDS011;1916;51.798;12.246;2023-07-30T00:54:35;5.10;;;4.60;;
3801;SDS011;1916;51.798;12.246;2023-07-30T00:56:38;6.10;;;5.50;;
3801;SDS011;1916;51.798;12.246;2023-07-30T00:58:44;6.13;;;5.53;;
3801;SDS011;1916;51.798;12.246;2023-07-30T01:00:51;5.57;;;5.00;;
3801;SDS011;1916;51.798;12.246;2023-07-30T01:02:54;5.70;;;5.20;;
3801;SDS011;1916;51.798;12.246;2023-07-30T01:04:56;5.90;;;5.40;;
3801;SDS011;1916;51.798;12.246;2023-07-30T01:06:59;5.87;;;5.27;;
3801;SDS011;1916;51.798;12.246;2023-07-30T01:09:01;5.23;;;4.70;;
3801;SDS011;1916;51.798;12.246;2023-07-30T01:11:03;6.00;;;4.90;;
3801;SDS011;1916;51.798;12.246;2023-07-30T01:13:06;5.33;;;4.83;;
3801;SDS011;1916;51.798;12.246;2023-07-30T01:15:10;6.00;;;5.40;;
3801;SDS011;1916;51.798;12.246;2023-07-30T01:17:13;6.90;;;5.20;;
3801;SDS011;1916;51.798;12.246;2023-07-30T01:19:16;6.53;;;5.23;;
3801;SDS011;1916;51.798;12.246;2023-07-30T01:21:18;7.10;;;5.87;;
3801;SDS011;1916;51.798;12.246;2023-07-30T01:23:20;5.20;;;4.70;;
3801;SDS011;1916;51.798;12.246;2023-07-30T01:25:22;7.73;;;5.70;;
3801;SDS011;1916;51.798;12.246;2023-07-30T01:27:28;5.70;;;5.00;;
3801;SDS011;1916;51.798;12.246;2023-07-30T01:31:55;5.93;;;4.87;;
3801;SDS011;1916;51.798;12.246;2023-07-30T01:33:58;6.13;;;5.47;;
3801;SDS011;1916;51.798;12.246;2023-07-30T01:36:01;5.70;;;5.13;;
3801;SDS011;1916;51.798;12.246;2023-07-30T01:38:04;7.80;;;5.63;;
3801;SDS011;1916;51.798;12.246;2023-07-30T01:40:07;12.03;;;5.63;;
3801;SDS011;1916;51.798;12.246;2023-07-30T01:42:14;6.63;;;5.20;;
3801;SDS011;1916;51.798;12.246;2023-07-30T01:44:16;7.77;;;6.27;;
3801;SDS011;1916;51.798;12.246;2023-07-30T01:46:18;6.37;;;5.60;;
3801;SDS011;1916;51.798;12.246;2023-07-30T01:48:21;5.90;;;5.00;;
3801;SDS011;1916;51.798;12.246;2023-07-30T01:50:23;5.37;;;4.87;;
3801;SDS011;1916;51.798;12.246;2023-07-30T01:52:25;5.57;;;4.70;;
3801;SDS011;1916;51.798;12.246;2023-07-30T01:54:27;6.50;;;5.43;;
3801;SDS011;1916;51.798;12.246;2023-07-30T01:56:30;10.50;;;5.57;;
3801;SDS011;1916;51.798;12.246;2023-07-30T01:58:32;5.87;;;5.17;;
3801;SDS011;1916;51.798;12.246;2023-07-30T02:00:34;6.17;;;5.47;;
3801;SDS011;1916;51.798;12.246;2023-07-30T02:02:40;6.87;;;5.00;;
3801;SDS011;1916;51.798;12.246;2023-07-30T02:04:42;6.87;;;5.20;;
3801;SDS011;1916;51.798;12.246;2023-07-30T02:06:45;5.87;;;5.30;;
3801;SDS011;1916;51.798;12.246;2023-07-30T02:08:47;7.30;;;5.40;;
3801;SDS011;1916;51.798;12.246;2023-07-30T02:10:58;7.80;;;5.47;;
3801;SDS011;1916;51.798;12.246;2023-07-30T02:13:00;7.40;;;5.37;;
3801;SDS011;1916;51.798;12.246;2023-07-30T02:15:03;7.60;;;6.23;;
3801;SDS011;1916;51.798;12.246;2023-07-30T02:17:05;8.43;;;6.00;;
3801;SDS011;1916;51.798;12.246;2023-07-30T02:19:08;6.70;;;5.43;;
3801;SDS011;1916;51.798;12.246;2023-07-30T02:21:10;6.60;;;6.00;;
3801;SDS011;1916;51.798;12.246;2023-07-30T02:23:13;6.03;;;5.43;;
3801;SDS011;1916;51.798;12.246;2023-07-30T02:25:16;6.73;;;6.00;;
3801;SDS011;1916;51.798;12.246;2023-07-30T02:27:18;11.03;;;7.00;;
3801;SDS011;1916;51.798;12.246;2023-07-30T02:29:20;6.70;;;5.70;;
3801;SDS011;1916;51.798;12.246;2023-07-30T02:31:22;8.40;;;7.47;;
3801;SDS011;1916;51.798;12.246;2023-07-30T02:33:24;11.10;;;6.20;;
3801;SDS011;1916;51.798;12.246;2023-07-30T02:35:27;6.50;;;5.80;;
3801;SDS011;1916;51.798;12.246;2023-07-30T02:37:29;7.60;;;6.80;;
3801;SDS011;1916;51.798;12.246;2023-07-30T02:39:31;7.60;;;6.13;;
3801;SDS011;1916;51.798;12.246;2023-07-30T02:41:33;9.40;;;7.27;;
3801;SDS011;1916;51.798;12.246;2023-07-30T02:43:35;7.67;;;6.87;;
3801;SDS011;1916;51.798;12.246;2023-07-30T02:45:38;7.20;;;6.20;;
3801;SDS011;1916;51.798;12.246;2023-07-30T02:47:40;7.80;;;6.33;;
3801;SDS011;1916;51.798;12.246;2023-07-30T02:49:43;6.83;;;5.83;;
3801;SDS011;1916;51.798;12.246;2023-07-30T02:51:45;7.00;;;6.10;;
3801;SDS011;1916;51.798;12.246;2023-07-30T02:53:55;6.77;;;5.90;;
3801;SDS011;1916;51.798;12.246;2023-07-30T02:55:59;6.90;;;6.20;;
3801;SDS011;1916;51.798;12.246;2023-07-30T02:58:01;8.00;;;6.33;;
3801;SDS011;1916;51.798;12.246;2023-07-30T03:00:03;7.00;;;6.17;;
3801;SDS011;1916;51.798;12.246;2023-07-30T03:02:06;6.70;;;5.60;;
3801;SDS011;1916;51.798;12.246;2023-07-30T03:04:08;6.70;;;6.00;;
3801;SDS011;1916;51.798;12.246;2023-07-30T03:06:10;7.83;;;7.03;;
3801;SDS011;1916;51.798;12.246;2023-07-30T03:08:12;7.67;;;5.93;;
3801;SDS011;1916;51.798;12.246;2023-07-30T03:10:15;8.70;;;5.83;;
3801;SDS011;1916;51.798;12.246;2023-07-30T03:12:17;7.77;;;5.70;;
3801;SDS011;1916;51.798;12.246;2023-07-30T03:14:19;6.73;;;6.03;;
3801;SDS011;1916;51.798;12.246;2023-07-30T03:16:22;7.50;;;5.80;;
3801;SDS011;1916;51.798;12.246;2023-07-30T03:18:24;7.00;;;5.90;;
3801;SDS011;1916;51.798;12.246;2023-07-30T03:20:26;9.00;;;6.63;;
3801;SDS011;1916;51.798;12.246;2023-07-30T03:22:28;6.40;;;5.73;;
3801;SDS011;1916;51.798;12.246;2023-07-30T03:24:30;6.10;;;5.50;;
3801;SDS011;1916;51.798;12.246;2023-07-30T03:26:33;5.57;;;5.07;;
3801;SDS011;1916;51.798;12.246;2023-07-30T03:28:35;5.50;;;4.90;;
3801;SDS011;1916;51.798;12.246;2023-07-30T03:30:41;5.60;;;5.10;;
3801;SDS011;1916;51.798;12.246;2023-07-30T03:32:44;5.47;;;4.97;;
3801;SDS011;1916;51.798;12.246;2023-07-30T03:34:46;5.20;;;4.70;;
3801;SDS011;1916;51.798;12.246;2023-07-30T03:36:48;11.77;;;5.50;;
3801;SDS011;1916;51.798;12.246;2023-07-30T03:38:50;5.30;;;4.80;;
3801;SDS011;1916;51.798;12.246;2023-07-30T03:40:52;7.37;;;4.80;;
3801;SDS011;1916;51.798;12.246;2023-07-30T03:42:54;6.43;;;5.33;;
3801;SDS011;1916;51.798;12.246;2023-07-30T03:44:56;8.03;;;5.60;;
3801;SDS011;1916;51.798;12.246;2023-07-30T03:46:58;6.67;;;5.50;;
3801;SDS011;1916;51.798;12.246;2023-07-30T03:49:00;5.90;;;5.30;;
3801;SDS011;1916;51.798;12.246;2023-07-30T03:51:03;6.80;;;5.50;;
3801;SDS011;1916;51.798;12.246;2023-07-30T03:53:05;5.77;;;5.20;;
3801;SDS011;1916;51.798;12.246;2023-07-30T03:55:07;9.23;;;5.43;;
3801;SDS011;1916;51.798;12.246;2023-07-30T03:57:09;5.73;;;5.13;;
3801;SDS011;1916;51.798;12.246;2023-07-30T03:59:12;6.13;;;5.30;;
3801;SDS011;1916;51.798;12.246;2023-07-30T04:01:14;7.00;;;6.30;;
3801;SDS011;1916;51.798;12.246;2023-07-30T04:03:16;6.13;;;5.47;;
3801;SDS011;1916;51.798;12.246;2023-07-30T04:05:18;9.70;;;5.30;;
3801;SDS011;1916;51.798;12.246;2023-07-30T04:07:21;7.07;;;5.50;;
3801;SDS011;1916;51.798;12.246;2023-07-30T04:09:23;6.27;;;5.67;;
3801;SDS011;1916;51.798;12.246;2023-07-30T04:11:25;5.57;;;5.03;;
3801;SDS011;1916;51.798;12.246;2023-07-30T04:13:28;10.77;;;5.23;;
3801;SDS011;1916;51.798;12.246;2023-07-30T04:15:30;6.83;;;6.20;;
3801;SDS011;1916;51.798;12.246;2023-07-30T04:17:33;5.60;;;5.10;;
3801;SDS011;1916;51.798;12.246;2023-07-30T04:19:38;6.33;;;5.73;;
3801;SDS011;1916;51.798;12.246;2023-07-30T04:21:40;8.10;;;5.13;;
3801;SDS011;1916;51.798;12.246;2023-07-30T04:23:43;12.20;;;6.03;;
3801;SDS011;1916;51.798;12.246;2023-07-30T04:25:45;6.10;;;5.50;;
3801;SDS011;1916;51.798;12.246;2023-07-30T04:27:47;7.30;;;5.43;;
3801;SDS011;1916;51.798;12.246;2023-07-30T04:29:49;7.83;;;5.93;;
3801;SDS011;1916;51.798;12.246;2023-07-30T04:31:51;7.07;;;6.47;;
3801;SDS011;1916;51.798;12.246;2023-07-30T04:33:53;11.40;;;6.40;;
3801;SDS011;1916;51.798;12.246;2023-07-30T04:35:55;8.47;;;5.67;;
3801;SDS011;1916;51.798;12.246;2023-07-30T04:37:57;9.00;;;6.47;;
3801;SDS011;1916;51.798;12.246;2023-07-30T04:40:00;7.37;;;5.97;;
3801;SDS011;1916;51.798;12.246;2023-07-30T04:42:04;6.93;;;5.67;;
3801;SDS011;1916;51.798;12.246;2023-07-30T04:44:07;7.43;;;6.03;;
3801;SDS011;1916;51.798;12.246;2023-07-30T04:46:09;7.90;;;6.27;;
3801;SDS011;1916;51.798;12.246;2023-07-30T04:48:11;6.10;;;5.13;;
3801;SDS011;1916;51.798;12.246;2023-07-30T04:50:14;6.83;;;6.13;;
3801;SDS011;1916;51.798;12.246;2023-07-30T04:52:16;13.80;;;6.00;;
3801;SDS011;1916;51.798;12.246;2023-07-30T04:54:18;4.83;;;4.43;;
3801;SDS011;1916;51.798;12.246;2023-07-30T04:56:20;7.20;;;5.33;;
3801;SDS011;1916;51.798;12.246;2023-07-30T04:58:22;5.30;;;4.80;;
3801;SDS011;1916;51.798;12.246;2023-07-30T05:00:25;7.97;;;4.90;;
3801;SDS011;1916;51.798;12.246;2023-07-30T05:02:27;8.63;;;4.73;;
3801;SDS011;1916;51.798;12.246;2023-07-30T05:04:29;6.40;;;4.57;;
3801;SDS011;1916;51.798;12.246;2023-07-30T05:06:32;5.37;;;4.33;;
3801;SDS011;1916;51.798;12.246;2023-07-30T05:08:34;5.40;;;4.13;;
3801;SDS011;1916;51.798;12.246;2023-07-30T05:10:36;6.90;;;4.20;;
3801;SDS011;1916;51.798;12.246;2023-07-30T05:12:38;4.87;;;4.37;;
3801;SDS011;1916;51.798;12.246;2023-07-30T05:14:40;3.93;;;3.63;;
3801;SDS011;1916;51.798;12.246;2023-07-30T05:16:42;7.70;;;3.43;;
3801;SDS011;1916;51.798;12.246;2023-07-30T05:18:45;4.83;;;3.40;;
3801;SDS011;1916;51.798;12.246;2023-07-30T05:20:47;4.93;;;3.60;;
3801;SDS011;1916;51.798;12.246;2023-07-30T05:22:49;3.70;;;3.23;;
3801;SDS011;1916;51.798;12.246;2023-07-30T05:24:51;4.27;;;3.50;;
3801;SDS011;1916;51.798;12.246;2023-07-30T05:26:53;6.67;;;3.70;;
3801;SDS011;1916;51.798;12.246;2023-07-30T05:28:55;3.20;;;2.90;;
3801;SDS011;1916;51.798;12.246;2023-07-30T05:30:57;4.57;;;3.10;;
3801;SDS011;1916;51.798;12.246;2023-07-30T05:32:59;3.97;;;3.30;;
3801;SDS011;1916;51.798;12.246;2023-07-30T05:35:01;3.80;;;3.40;;
3801;SDS011;1916;51.798;12.246;2023-07-30T05:37:04;3.60;;;2.90;;
3801;SDS011;1916;51.798;12.246;2023-07-30T05:39:06;2.87;;;2.67;;
3801;SDS011;1916;51.798;12.246;2023-07-30T05:41:08;4.37;;;3.97;;
3801;SDS011;1916;51.798;12.246;2023-07-30T05:43:10;3.40;;;3.10;;
3801;SDS011;1916;51.798;12.246;2023-07-30T05:45:12;9.03;;;3.60;;
3801;SDS011;1916;51.798;12.246;2023-07-30T05:47:14;4.57;;;3.40;;
3801;SDS011;1916;51.798;12.246;2023-07-30T05:49:16;2.93;;;2.73;;
3801;SDS011;1916;51.798;12.246;2023-07-30T05:51:18;3.30;;;3.00;;
3801;SDS011;1916;51.798;12.246;2023-07-30T05:53:20;7.53;;;2.97;;
3801;SDS011;1916;51.798;12.246;2023-07-30T05:55:22;5.13;;;2.70;;
3801;SDS011;1916;51.798;12.246;2023-07-30T05:57:25;5.10;;;2.60;;
3801;SDS011;1916;51.798;12.246;2023-07-30T05:59:27;6.00;;;3.03;;
3801;SDS011;1916;51.798;12.246;2023-07-30T06:01:29;4.33;;;2.30;;
3801;SDS011;1916;51.798;12.246;2023-07-30T06:03:31;9.73;;;2.77;;
3801;SDS011;1916;51.798;12.246;2023-07-30T06:05:38;2.80;;;2.00;;
3801;SDS011;1916;51.798;12.246;2023-07-30T06:07:42;4.73;;;2.73;;
3801;SDS011;1916;51.798;12.246;2023-07-30T06:09:44;2.63;;;2.43;;
3801;SDS011;1916;51.798;12.246;2023-07-30T06:11:47;6.87;;;3.00;;
3801;SDS011;1916;51.798;12.246;2023-07-30T06:13:49;4.07;;;2.63;;
3801;SDS011;1916;51.798;12.246;2023-07-30T06:15:51;3.30;;;2.70;;
3801;SDS011;1916;51.798;12.246;2023-07-30T06:17:53;3.10;;;2.80;;
3801;SDS011;1916;51.798;12.246;2023-07-30T06:19:55;2.50;;;2.30;;
3801;SDS011;1916;51.798;12.246;2023-07-30T06:21:57;10.30;;;2.80;;
3801;SDS011;1916;51.798;12.246;2023-07-30T06:23:59;6.40;;;2.60;;
3801;SDS011;1916;51.798;12.246;2023-07-30T06:26:01;3.90;;;2.40;;
3801;SDS011;1916;51.798;12.246;2023-07-30T06:28:04;3.30;;;2.67;;
3801;SDS011;1916;51.798;12.246;2023-07-30T06:30:07;3.47;;;2.60;;
3801;SDS011;1916;51.798;12.246;2023-07-30T06:32:09;2.27;;;2.07;;
3801;SDS011;1916;51.798;12.246;2023-07-30T06:34:11;3.20;;;2.10;;
3801;SDS011;1916;51.798;12.246;2023-07-30T06:36:13;3.13;;;2.33;;
3801;SDS011;1916;51.798;12.246;2023-07-30T06:38:15;3.30;;;2.20;;
3801;SDS011;1916;51.798;12.246;2023-07-30T06:40:17;3.10;;;2.20;;
3801;SDS011;1916;51.798;12.246;2023-07-30T06:42:20;5.53;;;2.40;;
3801;SDS011;1916;51.798;12.246;2023-07-30T06:44:22;2.27;;;2.07;;
3801;SDS011;1916;51.798;12.246;2023-07-30T06:46:26;2.57;;;1.83;;
3801;SDS011;1916;51.798;12.246;2023-07-30T06:48:28;6.30;;;2.73;;
3801;SDS011;1916;51.798;12.246;2023-07-30T06:50:30;3.40;;;2.27;;
3801;SDS011;1916;51.798;12.246;2023-07-30T06:52:32;4.83;;;2.20;;
3801;SDS011;1916;51.798;12.246;2023-07-30T06:54:34;3.07;;;2.13;;
3801;SDS011;1916;51.798;12.246;2023-07-30T06:56:40;2.60;;;2.30;;
3801;SDS011;1916;51.798;12.246;2023-07-30T06:58:42;2.73;;;2.50;;
3801;SDS011;1916;51.798;12.246;2023-07-30T07:00:44;4.90;;;2.20;;
3801;SDS011;1916;51.798;12.246;2023-07-30T07:02:47;6.00;;;2.60;;
3801;SDS011;1916;51.798;12.246;2023-07-30T07:04:50;3.93;;;2.47;;
3801;SDS011;1916;51.798;12.246;2023-07-30T07:06:52;4.93;;;2.00;;
3801;SDS011;1916;51.798;12.246;2023-07-30T07:08:54;5.53;;;2.20;;
3801;SDS011;1916;51.798;12.246;2023-07-30T07:10:56;4.17;;;2.30;;
3801;SDS011;1916;51.798;12.246;2023-07-30T07:12:58;7.50;;;2.37;;
3801;SDS011;1916;51.798;12.246;2023-07-30T07:15:01;3.67;;;1.90;;
3801;SDS011;1916;51.798;12.246;2023-07-30T07:17:03;5.83;;;2.17;;
3801;SDS011;1916;51.798;12.246;2023-07-30T07:19:05;2.90;;;2.13;;
3801;SDS011;1916;51.798;12.246;2023-07-30T07:21:08;7.57;;;2.40;;
3801;SDS011;1916;51.798;12.246;2023-07-30T07:23:10;2.90;;;2.17;;
3801;SDS011;1916;51.798;12.246;2023-07-30T07:25:14;3.07;;;1.77;;
3801;SDS011;1916;51.798;12.246;2023-07-30T07:27:20;7.43;;;2.60;;
3801;SDS011;1916;51.798;12.246;2023-07-30T07:29:22;3.40;;;2.10;;
3801;SDS011;1916;51.798;12.246;2023-07-30T07:31:24;4.33;;;2.10;;
3801;SDS011;1916;51.798;12.246;2023-07-30T07:33:26;3.73;;;2.00;;
3801;SDS011;1916;51.798;12.246;2023-07-30T07:35:28;5.83;;;2.47;;
3801;SDS011;1916;51.798;12.246;2023-07-30T07:37:31;4.73;;;2.07;;
3801;SDS011;1916;51.798;12.246;2023-07-30T07:39:33;3.53;;;2.07;;
3801;SDS011;1916;51.798;12.246;2023-07-30T07:41:35;3.97;;;2.33;;
3801;SDS011;1916;51.798;12.246;2023-07-30T07:43:38;5.10;;;2.10;;
3801;SDS011;1916;51.798;12.246;2023-07-30T07:45:40;3.77;;;2.40;;
3801;SDS011;1916;51.798;12.246;2023-07-30T07:47:42;7.60;;;2.40;;
3801;SDS011;1916;51.798;12.246;2023-07-30T07:49:44;4.17;;;2.83;;
3801;SDS011;1916;51.798;12.246;2023-07-30T07:51:46;6.50;;;2.60;;
3801;SDS011;1916;51.798;12.246;2023-07-30T07:53:48;5.00;;;2.50;;
3801;SDS011;1916;51.798;12.246;2023-07-30T07:55:50;5.20;;;2.90;;
3801;SDS011;1916;51.798;12.246;2023-07-30T07:57:52;5.63;;;2.87;;
3801;SDS011;1916;51.798;12.246;2023-07-30T07:59:55;4.93;;;2.80;;
3801;SDS011;1916;51.798;12.246;2023-07-30T08:01:57;4.43;;;2.70;;
3801;SDS011;1916;51.798;12.246;2023-07-30T08:04:00;8.83;;;2.80;;
3801;SDS011;1916;51.798;12.246;2023-07-30T08:06:02;4.03;;;3.30;;
3801;SDS011;1916;51.798;12.246;2023-07-30T08:08:04;7.10;;;2.70;;
3801;SDS011;1916;51.798;12.246;2023-07-30T08:10:06;2.93;;;2.63;;
3801;SDS011;1916;51.798;12.246;2023-07-30T08:12:09;6.33;;;3.20;;
3801;SDS011;1916;51.798;12.246;2023-07-30T08:14:11;4.80;;;2.47;;
3801;SDS011;1916;51.798;12.246;2023-07-30T08:16:13;6.20;;;2.70;;
3801;SDS011;1916;51.798;12.246;2023-07-30T08:18:15;12.23;;;2.50;;
3801;SDS011;1916;51.798;12.246;2023-07-30T08:20:17;2.63;;;2.43;;
3801;SDS011;1916;51.798;12.246;2023-07-30T08:22:19;5.20;;;3.00;;
3801;SDS011;1916;51.798;12.246;2023-07-30T08:24:22;3.97;;;2.80;;
3801;SDS011;1916;51.798;12.246;2023-07-30T08:26:24;6.30;;;2.70;;
3801;SDS011;1916;51.798;12.246;2023-07-30T08:28:26;3.93;;;2.90;;
3801;SDS011;1916;51.798;12.246;2023-07-30T08:30:28;4.50;;;2.87;;
3801;SDS011;1916;51.798;12.246;2023-07-30T08:32:30;4.63;;;3.00;;
3801;SDS011;1916;51.798;12.246;2023-07-30T08:34:34;4.43;;;2.93;;
3801;SDS011;1916;51.798;12.246;2023-07-30T08:36:36;6.80;;;2.60;;
3801;SDS011;1916;51.798;12.246;2023-07-30T08:38:39;4.90;;;3.00;;
3801;SDS011;1916;51.798;12.246;2023-07-30T08:40:41;5.00;;;2.63;;
3801;SDS011;1916;51.798;12.246;2023-07-30T08:42:43;6.67;;;3.17;;
3801;SDS011;1916;51.798;12.246;2023-07-30T08:44:45;8.30;;;3.00;;
3801;SDS011;1916;51.798;12.246;2023-07-30T08:46:47;4.83;;;2.90;;
3801;SDS011;1916;51.798;12.246;2023-07-30T08:48:49;5.60;;;3.00;;
3801;SDS011;1916;51.798;12.246;2023-07-30T08:50:51;3.63;;;2.87;;
3801;SDS011;1916;51.798;12.246;2023-07-30T08:52:54;6.43;;;3.73;;
3801;SDS011;1916;51.798;12.246;2023-07-30T08:54:57;3.10;;;2.80;;
3801;SDS011;1916;51.798;12.246;2023-07-30T08:57:00;6.63;;;3.10;;
3801;SDS011;1916;51.798;12.246;2023-07-30T08:59:03;6.93;;;2.90;;
3801;SDS011;1916;51.798;12.246;2023-07-30T09:01:09;4.30;;;3.17;;
3801;SDS011;1916;51.798;12.246;2023-07-30T09:03:13;4.30;;;2.43;;
3801;SDS011;1916;51.798;12.246;2023-07-30T09:05:17;3.43;;;2.67;;
3801;SDS011;1916;51.798;12.246;2023-07-30T09:07:20;3.77;;;2.40;;
3801;SDS011;1916;51.798;12.246;2023-07-30T09:09:22;3.80;;;2.50;;
3801;SDS011;1916;51.798;12.246;2023-07-30T09:11:25;2.80;;;2.30;;
3801;SDS011;1916;51.798;12.246;2023-07-30T09:13:28;2.53;;;2.33;;
3801;SDS011;1916;51.798;12.246;2023-07-30T09:15:34;1.83;;;1.70;;
3801;SDS011;1916;51.798;12.246;2023-07-30T09:17:39;3.40;;;2.17;;
3801;SDS011;1916;51.798;12.246;2023-07-30T09:19:41;2.73;;;2.30;;
3801;SDS011;1916;51.798;12.246;2023-07-30T09:21:43;2.90;;;2.50;;
3801;SDS011;1916;51.798;12.246;2023-07-30T09:23:46;4.00;;;2.70;;
3801;SDS011;1916;51.798;12.246;2023-07-30T09:25:48;4.03;;;2.20;;
3801;SDS011;1916;51.798;12.246;2023-07-30T09:27:51;3.50;;;2.60;;
3801;SDS011;1916;51.798;12.246;2023-07-30T09:29:54;4.07;;;2.70;;
3801;SDS011;1916;51.798;12.246;2023-07-30T09:31:57;3.30;;;2.80;;
3801;SDS011;1916;51.798;12.246;2023-07-30T09:33:59;4.27;;;2.40;;
3801;SDS011;1916;51.798;12.246;2023-07-30T09:36:02;4.13;;;2.40;;
3801;SDS011;1916;51.798;12.246;2023-07-30T09:38:05;3.17;;;2.20;;
3801;SDS011;1916;51.798;12.246;2023-07-30T09:40:10;4.73;;;2.20;;
3801;SDS011;1916;51.798;12.246;2023-07-30T09:42:14;3.73;;;2.40;;
3801;SDS011;1916;51.798;12.246;2023-07-30T09:44:20;2.23;;;2.03;;
3801;SDS011;1916;51.798;12.246;2023-07-30T09:46:22;2.20;;;2.00;;
3801;SDS011;1916;51.798;12.246;2023-07-30T09:48:24;2.43;;;2.20;;
3801;SDS011;1916;51.798;12.246;2023-07-30T09:50:26;3.50;;;2.50;;
3801;SDS011;1916;51.798;12.246;2023-07-30T09:52:32;3.20;;;2.53;;
3801;SDS011;1916;51.798;12.246;2023-07-30T09:54:34;2.90;;;2.37;;
3801;SDS011;1916;51.798;12.246;2023-07-30T09:56:39;2.20;;;2.00;;
3801;SDS011;1916;51.798;12.246;2023-07-30T09:58:42;5.13;;;2.00;;
3801;SDS011;1916;51.798;12.246;2023-07-30T10:00:44;3.13;;;2.40;;
3801;SDS011;1916;51.798;12.246;2023-07-30T10:02:49;3.60;;;2.20;;
3801;SDS011;1916;51.798;12.246;2023-07-30T10:04:51;3.70;;;2.40;;
3801;SDS011;1916;51.798;12.246;2023-07-30T10:06:58;4.73;;;2.77;;
3801;SDS011;1916;51.798;12.246;2023-07-30T10:09:04;3.77;;;2.07;;
3801;SDS011;1916;51.798;12.246;2023-07-30T10:11:07;2.43;;;2.00;;
3801;SDS011;1916;51.798;12.246;2023-07-30T10:13:10;2.60;;;2.23;;
3801;SDS011;1916;51.798;12.246;2023-07-30T10:15:13;2.10;;;1.70;;
3801;SDS011;1916;51.798;12.246;2023-07-30T10:17:16;2.30;;;1.90;;
3801;SDS011;1916;51.798;12.246;2023-07-30T10:19:22;2.00;;;1.67;;
3801;SDS011;1916;51.798;12.246;2023-07-30T10:21:26;6.07;;;1.90;;
3801;SDS011;1916;51.798;12.246;2023-07-30T10:23:32;2.50;;;1.90;;
3801;SDS011;1916;51.798;12.246;2023-07-30T10:25:45;2.40;;;2.20;;
3801;SDS011;1916;51.798;12.246;2023-07-30T10:27:49;2.40;;;2.20;;
3801;SDS011;1916;51.798;12.246;2023-07-30T10:30:08;2.30;;;1.80;;
3801;SDS011;1916;51.798;12.246;2023-07-30T10:32:10;3.00;;;1.80;;
3801;SDS011;1916;51.798;12.246;2023-07-30T10:34:13;2.43;;;2.07;;
3801;SDS011;1916;51.798;12.246;2023-07-30T10:36:17;3.03;;;2.00;;
3801;SDS011;1916;51.798;12.246;2023-07-30T10:38:30;4.87;;;2.20;;
3801;SDS011;1916;51.798;12.246;2023-07-30T10:40:32;4.40;;;1.87;;
3801;SDS011;1916;51.798;12.246;2023-07-30T10:42:34;3.00;;;1.80;;
3801;SDS011;1916;51.798;12.246;2023-07-30T10:44:36;2.20;;;1.70;;
3801;SDS011;1916;51.798;12.246;2023-07-30T10:46:38;2.10;;;1.70;;
3801;SDS011;1916;51.798;12.246;2023-07-30T10:48:42;3.03;;;2.00;;
3801;SDS011;1916;51.798;12.246;2023-07-30T10:50:45;3.17;;;1.70;;
3801;SDS011;1916;51.798;12.246;2023-07-30T10:52:50;4.03;;;2.27;;
3801;SDS011;1916;51.798;12.246;2023-07-30T10:54:59;2.17;;;1.50;;
3801;SDS011;1916;51.798;12.246;2023-07-30T10:57:02;1.83;;;1.60;;
3801;SDS011;1916;51.798;12.246;2023-07-30T10:59:05;2.67;;;1.60;;
3801;SDS011;1916;51.798;12.246;2023-07-30T11:01:10;2.50;;;1.60;;
3801;SDS011;1916;51.798;12.246;2023-07-30T11:03:12;6.30;;;1.73;;
3801;SDS011;1916;51.798;12.246;2023-07-30T11:05:14;3.30;;;1.77;;
3801;SDS011;1916;51.798;12.246;2023-07-30T11:07:17;2.80;;;1.53;;
3801;SDS011;1916;51.798;12.246;2023-07-30T11:09:24;1.83;;;1.63;;
3801;SDS011;1916;51.798;12.246;2023-07-30T11:11:28;3.50;;;1.50;;
3801;SDS011;1916;51.798;12.246;2023-07-30T11:13:34;5.57;;;1.50;;
3801;SDS011;1916;51.798;12.246;2023-07-30T11:15:48;1.60;;;1.50;;
3801;SDS011;1916;51.798;12.246;2023-07-30T11:17:53;2.13;;;1.63;;
3801;SDS011;1916;51.798;12.246;2023-07-30T11:19:55;6.87;;;1.90;;
3801;SDS011;1916;51.798;12.246;2023-07-30T11:21:57;1.67;;;1.50;;
3801;SDS011;1916;51.798;12.246;2023-07-30T11:23:59;2.57;;;1.40;;
3801;SDS011;1916;51.798;12.246;2023-07-30T11:26:02;2.93;;;1.80;;
3801;SDS011;1916;51.798;12.246;2023-07-30T11:28:05;2.60;;;1.80;;
3801;SDS011;1916;51.798;12.246;2023-07-30T11:30:07;1.70;;;1.60;;
3801;SDS011;1916;51.798;12.246;2023-07-30T11:32:09;1.83;;;1.47;;
3801;SDS011;1916;51.798;12.246;2023-07-30T11:34:12;3.90;;;1.60;;
3801;SDS011;1916;51.798;12.246;2023-07-30T11:36:15;2.93;;;1.60;;
3801;SDS011;1916;51.798;12.246;2023-07-30T11:38:19;1.50;;;1.40;;
3801;SDS011;1916;51.798;12.246;2023-07-30T11:40:21;2.10;;;1.67;;
3801;SDS011;1916;51.798;12.246;2023-07-30T11:42:23;4.87;;;1.63;;
3801;SDS011;1916;51.798;12.246;2023-07-30T11:44:30;4.20;;;1.40;;
3801;SDS011;1916;51.798;12.246;2023-07-30T11:46:36;1.97;;;1.70;;
3801;SDS011;1916;51.798;12.246;2023-07-30T11:48:43;1.50;;;1.40;;
3801;SDS011;1916;51.798;12.246;2023-07-30T11:52:55;2.73;;;1.77;;
3801;SDS011;1916;51.798;12.246;2023-07-30T11:55:02;1.90;;;1.50;;
3801;SDS011;1916;51.798;12.246;2023-07-30T11:57:04;1.80;;;1.57;;
3801;SDS011;1916;51.798;12.246;2023-07-30T11:59:07;2.27;;;1.77;;
3801;SDS011;1916;51.798;12.246;2023-07-30T12:01:09;1.73;;;1.40;;
3801;SDS011;1916;51.798;12.246;2023-07-30T12:03:11;2.10;;;1.67;;
3801;SDS011;1916;51.798;12.246;2023-07-30T12:05:17;2.07;;;1.33;;
3801;SDS011;1916;51.798;12.246;2023-07-30T12:07:23;1.70;;;1.60;;
3801;SDS011;1916;51.798;12.246;2023-07-30T12:09:26;2.70;;;1.80;;
3801;SDS011;1916;51.798;12.246;2023-07-30T12:11:28;3.30;;;2.00;;
3801;SDS011;1916;51.798;12.246;2023-07-30T12:13:30;1.80;;;1.60;;
3801;SDS011;1916;51.798;12.246;2023-07-30T12:15:33;1.80;;;1.70;;
3801;SDS011;1916;51.798;12.246;2023-07-30T12:17:35;4.30;;;1.67;;
3801;SDS011;1916;51.798;12.246;2023-07-30T12:19:37;1.63;;;1.53;;
3801;SDS011;1916;51.798;12.246;2023-07-30T12:21:40;2.43;;;1.70;;
3801;SDS011;1916;51.798;12.246;2023-07-30T12:23:43;4.87;;;1.90;;
3801;SDS011;1916;51.798;12.246;2023-07-30T12:25:46;2.47;;;1.57;;
3801;SDS011;1916;51.798;12.246;2023-07-30T12:27:48;2.90;;;2.07;;
3801;SDS011;1916;51.798;12.246;2023-07-30T12:29:50;2.37;;;1.77;;
3801;SDS011;1916;51.798;12.246;2023-07-30T12:31:53;1.57;;;1.47;;
3801;SDS011;1916;51.798;12.246;2023-07-30T12:33:55;3.93;;;1.80;;
3801;SDS011;1916;51.798;12.246;2023-07-30T12:35:57;2.20;;;1.50;;